Neosho Falls, Kansas
Current Conditions -  °F | °C
As of 3:52 PM on Thursday 27 Nov 2014 (Local Time) from KCNU Reporting Station
Clear Clear  
Wind Chill: 36°   Ceiling: Unl
Heat Index: 42°   Visibility: 10mi
Dew Point: 20°   Wind: 12mph
Humidity: 41%   Direction: 150°SSE
Pressure: 30.39"   Gusts: NA
Location:  38.01°N, 95.56°W
Report Text: KCNU 272152Z AUTO 15010KT 10SM CLR 06/M07 A3039 RMK AO2 SLP299 T00561067
Loading
Personal Weather Stations






























Interactive Weather Map New forecast layout! Learn more

10-Day Weather Forecast

Advertisements
Track Severe Weather on mobile